Startpagina
METAR-TAF:

METAR-TAF

Vliegvelden :

Chulitna, Alaska, Verenigde Staten

breedte: 62-53N, lengte: 149-50W, hoogte: 381 m

Actueel weer

Dit bericht is 15 uur en het 34 minuten geleden gemaakt, om 23:48 UTC
Wind 4 kt uit het noordnoordoosten
Temperatuur -7°C
Vochtigheid 79%
Druk 977 hPa
Zicht: 24.1 km
Verspreide wolken op 4000 ft
Gebroken wolken op 5000 ft

METAR: PAEC 102348Z 02004KT 15SM SCT040 BKN050 M07/M10 A2886 RMK NOSPECI

Tijdstip: 06:22 (15:22 UTC)


TAF: ontbreekt

Waarnemingen en weersverwachtingen van meer dan 4000 vliegvelden (METAR en TAF).

De beschikbare stations zijn de gele en rode punten op de kaart.

Ga met uw muis naar het station om de naam te zien.

Klik dan om waarnemingen en weersverwachtingen te zien.

kaart wijzigen: klik op de groene knoppen met een zwart kruis om in te zoomen, op de groene knop met een streepje om uit te zoomen of op de groene pijlen voor aangrenzende kaarten.


METAR-TAF: